createdAt,value
2018-07-01T00:00:13.912Z,60.00
2018-07-01T00:02:42.862Z,60.80
2018-07-01T00:05:12.286Z,60.70
2018-07-01T00:07:40.967Z,60.40
2018-07-01T00:10:10.595Z,60.60
2018-07-01T00:12:39.432Z,60.80
2018-07-01T00:15:08.666Z,61.70
2018-07-01T00:17:37.408Z,61.80
2018-07-01T00:20:06.983Z,61.00
2018-07-01T00:22:36.181Z,61.40
2018-07-01T00:25:04.871Z,61.70
2018-07-01T00:27:33.552Z,61.20
2018-07-01T00:30:02.626Z,62.00
2018-07-01T00:32:31.119Z,62.20
2018-07-01T00:34:59.772Z,62.90
2018-07-01T00:37:28.319Z,63.10
2018-07-01T00:39:56.856Z,63.50
2018-07-01T00:42:25.374Z,63.80
2018-07-01T00:44:54.039Z,64.70
2018-07-01T00:47:22.686Z,65.70
2018-07-01T00:49:51.404Z,66.40
2018-07-01T00:52:20.301Z,65.00
2018-07-01T00:54:49.075Z,65.30
2018-07-01T00:57:17.830Z,67.20
2018-07-01T00:59:46.416Z,66.10
2018-07-01T01:02:15.338Z,66.80
2018-07-01T01:04:43.862Z,64.80
2018-07-01T01:07:12.932Z,64.10
2018-07-01T01:09:41.794Z,64.20
2018-07-01T01:12:10.303Z,63.60
2018-07-01T01:14:38.798Z,63.20
2018-07-01T01:17:07.663Z,62.70
2018-07-01T01:19:36.412Z,62.00
2018-07-01T01:22:04.894Z,62.30
2018-07-01T01:24:33.858Z,62.10
2018-07-01T01:29:30.754Z,61.70
2018-07-01T01:31:59.384Z,61.40
2018-07-01T01:34:27.980Z,61.00
2018-07-01T01:36:56.934Z,61.30
2018-07-01T01:39:31.371Z,61.90
2018-07-01T01:42:05.186Z,62.30
2018-07-01T01:44:38.850Z,61.50
2018-07-01T01:47:23.111Z,61.50
2018-07-01T01:49:57.216Z,61.90
2018-07-01T01:52:31.253Z,61.30
2018-07-01T01:55:05.422Z,61.70
2018-07-01T01:57:38.256Z,61.70
2018-07-01T02:01:13.365Z,62.00
2018-07-01T02:03:47.010Z,62.00
2018-07-01T02:06:21.686Z,61.60
2018-07-01T02:08:54.355Z,62.20
2018-07-01T02:11:23.581Z,62.70
2018-07-01T02:13:55.215Z,63.10
2018-07-01T02:16:29.139Z,63.20
2018-07-01T02:18:57.822Z,63.30
2018-07-01T02:21:26.387Z,63.40
2018-07-01T02:23:59.384Z,63.40
2018-07-01T02:26:30.304Z,63.30
2018-07-01T02:28:59.107Z,63.40
2018-07-01T02:31:27.620Z,64.00
2018-07-01T02:33:56.168Z,64.70
2018-07-01T02:36:24.883Z,65.60
2018-07-01T02:38:53.807Z,65.30
2018-07-01T02:41:22.298Z,64.80
2018-07-01T02:46:19.103Z,65.30
2018-07-01T02:48:47.619Z,66.00
2018-07-01T02:51:16.163Z,66.70
2018-07-01T02:53:44.890Z,67.30
2018-07-01T02:56:13.381Z,67.70
2018-07-01T02:58:41.885Z,67.70
2018-07-01T03:01:11.102Z,67.00
2018-07-01T03:03:39.715Z,68.20
2018-07-01T03:06:08.434Z,68.90
2018-07-01T03:08:37.265Z,69.90
2018-07-01T03:11:05.811Z,69.70
2018-07-01T03:13:34.459Z,69.90
2018-07-01T03:16:03.036Z,70.30
2018-07-01T03:18:31.653Z,70.70
2018-07-01T03:21:00.164Z,70.40
2018-07-01T03:23:29.038Z,70.30
2018-07-01T03:25:57.806Z,70.20
2018-07-01T03:30:54.589Z,71.10
2018-07-01T03:33:23.111Z,71.00
2018-07-01T03:35:51.772Z,71.80
2018-07-01T03:38:20.707Z,74.20
2018-07-01T03:40:49.187Z,75.50
2018-07-01T03:43:18.163Z,76.20
2018-07-01T03:45:46.892Z,77.10
2018-07-01T03:48:15.524Z,77.80
2018-07-01T03:50:44.239Z,78.70
2018-07-01T03:55:41.271Z,80.30
2018-07-01T03:58:09.932Z,79.10
2018-07-01T04:00:38.471Z,79.40
2018-07-01T04:03:07.031Z,79.80
2018-07-01T04:05:35.607Z,80.00
2018-07-01T04:08:04.419Z,79.70
2018-07-01T04:10:32.885Z,79.30
2018-07-01T04:13:01.396Z,79.50
2018-07-01T04:15:29.927Z,79.80
2018-07-01T04:17:58.423Z,80.30
2018-07-01T04:20:27.434Z,80.00
2018-07-01T04:22:55.943Z,80.20
2018-07-01T04:25:24.669Z,80.70
2018-07-01T04:27:53.135Z,80.30
2018-07-01T04:30:21.659Z,80.50
2018-07-01T04:32:50.243Z,80.30
2018-07-01T04:35:18.996Z,80.20
2018-07-01T04:37:47.694Z,79.80
2018-07-01T04:40:16.271Z,79.20
2018-07-01T04:42:44.816Z,78.80
2018-07-01T04:47:41.492Z,77.90
2018-07-01T04:50:10.196Z,77.70
2018-07-01T04:52:38.721Z,76.40
2018-07-01T04:55:07.477Z,74.80
2018-07-01T04:57:36.092Z,74.10
2018-07-01T05:00:04.683Z,73.00
2018-07-01T05:02:33.550Z,72.70
2018-07-01T05:05:02.551Z,71.60
2018-07-01T05:07:31.103Z,71.50
2018-07-01T05:09:59.599Z,71.00
2018-07-01T05:12:28.553Z,68.90
2018-07-01T05:14:57.151Z,69.10
2018-07-01T05:17:25.652Z,68.70
2018-07-01T05:19:54.461Z,67.30
2018-07-01T05:22:23.012Z,66.00
2018-07-01T05:24:51.480Z,67.50
2018-07-01T05:27:20.190Z,66.50
2018-07-01T05:29:48.723Z,66.40
2018-07-01T05:32:17.229Z,65.60
2018-07-01T05:34:46.325Z,65.90
2018-07-01T05:37:14.792Z,64.70
2018-07-01T05:39:43.283Z,65.30
2018-07-01T05:42:12.170Z,64.50
2018-07-01T05:44:40.955Z,63.90
2018-07-01T05:47:09.543Z,63.90
2018-07-01T05:49:38.041Z,63.70
2018-07-01T05:52:06.754Z,63.60
2018-07-01T05:54:35.564Z,62.70
2018-07-01T05:57:04.074Z,63.80
2018-07-01T05:59:32.861Z,62.30
2018-07-01T06:02:01.348Z,61.10
2018-07-01T06:04:30.219Z,61.10
2018-07-01T06:09:27.011Z,60.00
2018-07-01T06:11:55.515Z,60.20
2018-07-01T06:14:24.156Z,59.90
2018-07-01T06:16:53.101Z,59.40
2018-07-01T06:19:21.675Z,58.00
2018-07-01T06:21:50.157Z,57.90
2018-07-01T06:24:18.860Z,56.90
2018-07-01T06:26:47.358Z,57.30
2018-07-01T06:29:16.102Z,56.00
2018-07-01T06:31:45.048Z,56.70
2018-07-01T06:34:13.678Z,56.60
2018-07-01T06:36:42.364Z,55.90
2018-07-01T06:39:11.609Z,55.10
2018-07-01T06:44:08.330Z,54.00
2018-07-01T06:46:37.043Z,54.40
2018-07-01T06:49:05.917Z,52.70
2018-07-01T06:51:34.450Z,52.70
2018-07-01T06:54:03.007Z,51.90
2018-07-01T06:56:31.541Z,52.10
2018-07-01T06:59:00.122Z,52.20
2018-07-01T07:01:28.730Z,52.50
2018-07-01T07:03:57.408Z,52.00
2018-07-01T07:06:26.140Z,53.10
2018-07-01T07:08:54.674Z,52.00
2018-07-01T07:11:23.265Z,52.50
2018-07-01T07:13:51.968Z,53.00
2018-07-01T07:16:20.555Z,51.70
2018-07-01T07:18:49.213Z,51.00
2018-07-01T07:21:19.043Z,52.20
2018-07-01T07:23:47.743Z,51.90
2018-07-01T07:26:16.308Z,51.40
2018-07-01T07:28:44.907Z,51.20
2018-07-01T07:33:41.972Z,51.10
2018-07-01T07:36:10.734Z,51.30
2018-07-01T07:38:39.350Z,50.50
2018-07-01T07:41:08.445Z,50.30
2018-07-01T07:43:37.126Z,51.00
2018-07-01T07:46:06.007Z,49.30
2018-07-01T07:48:35.092Z,48.50
2018-07-01T07:51:03.972Z,48.20
2018-07-01T07:53:32.707Z,48.00
2018-07-01T07:56:01.544Z,48.50
2018-07-01T07:58:30.146Z,48.10
2018-07-01T08:00:58.781Z,46.80
2018-07-01T08:03:27.578Z,46.70
2018-07-01T08:05:56.545Z,45.40
2018-07-01T08:08:25.182Z,46.10
2018-07-01T08:10:55.231Z,46.00
2018-07-01T08:13:23.998Z,45.10
2018-07-01T08:15:52.670Z,46.00
2018-07-01T08:18:21.617Z,45.40
2018-07-01T08:20:50.290Z,44.80
2018-07-01T08:23:18.963Z,44.90
2018-07-01T08:25:47.728Z,43.60
2018-07-01T08:28:16.707Z,42.60
2018-07-01T08:30:45.600Z,42.50
2018-07-01T08:33:14.438Z,42.00
2018-07-01T08:35:43.180Z,41.70
2018-07-01T08:38:12.044Z,42.70
2018-07-01T08:40:40.608Z,42.70
2018-07-01T08:43:09.393Z,41.50
2018-07-01T08:45:38.092Z,41.10
2018-07-01T08:48:07.168Z,40.20
2018-07-01T08:50:36.277Z,40.30
2018-07-01T08:53:05.115Z,40.20
2018-07-01T08:55:33.712Z,39.00
2018-07-01T08:58:02.323Z,38.90
2018-07-01T09:00:30.890Z,39.40
2018-07-01T09:03:00.145Z,38.70
2018-07-01T09:05:28.882Z,38.40
2018-07-01T09:07:57.585Z,38.30
2018-07-01T09:10:26.314Z,38.50
2018-07-01T09:12:54.938Z,38.60
2018-07-01T09:15:23.510Z,39.10
2018-07-01T09:17:52.182Z,39.20
2018-07-01T09:20:20.939Z,39.20
2018-07-01T09:22:49.703Z,38.70
2018-07-01T09:25:18.754Z,39.70
2018-07-01T09:27:47.760Z,39.50
2018-07-01T09:30:16.782Z,39.20
2018-07-01T09:32:45.385Z,38.30
2018-07-01T09:35:14.376Z,37.60
2018-07-01T09:37:43.277Z,37.50
2018-07-01T09:40:12.011Z,38.30
2018-07-01T09:42:40.698Z,37.30
2018-07-01T09:45:09.877Z,35.40
2018-07-01T09:47:38.616Z,34.50
2018-07-01T09:50:07.138Z,35.90
2018-07-01T09:52:35.695Z,35.70
2018-07-01T09:55:04.637Z,35.80
2018-07-01T09:57:33.232Z,36.10
2018-07-01T10:00:01.748Z,35.40
2018-07-01T10:02:30.606Z,36.00
2018-07-01T10:04:59.321Z,35.50
2018-07-01T10:07:28.039Z,34.60
2018-07-01T10:09:57.037Z,34.10
2018-07-01T10:12:25.935Z,33.30
2018-07-01T10:14:54.678Z,34.30
2018-07-01T10:17:23.472Z,32.80
2018-07-01T10:19:52.590Z,32.30
2018-07-01T10:22:21.374Z,32.30
2018-07-01T10:24:49.936Z,30.50
2018-07-01T10:27:18.913Z,30.10
2018-07-01T10:29:47.835Z,30.50
2018-07-01T10:32:16.489Z,29.10
2018-07-01T10:34:45.118Z,28.50
2018-07-01T10:37:14.064Z,27.80
2018-07-01T10:39:43.039Z,27.90
2018-07-01T10:42:11.829Z,27.30
2018-07-01T10:44:40.738Z,27.30
2018-07-01T10:47:09.904Z,26.60
2018-07-01T10:49:38.641Z,26.50
2018-07-01T10:52:07.273Z,25.20
2018-07-01T10:54:36.170Z,25.90
2018-07-01T10:57:05.167Z,25.70
2018-07-01T10:59:33.862Z,25.20
2018-07-01T11:02:02.774Z,24.90
2018-07-01T11:04:31.620Z,24.20
2018-07-01T11:07:00.268Z,24.10
2018-07-01T11:09:28.820Z,24.00
2018-07-01T11:11:57.663Z,24.40
2018-07-01T11:14:26.589Z,25.40
2018-07-01T11:16:55.475Z,24.80
2018-07-01T11:19:24.371Z,24.60
2018-07-01T11:21:53.018Z,24.50
2018-07-01T11:24:21.787Z,25.20
2018-07-01T11:29:19.312Z,24.80
2018-07-01T11:31:48.249Z,24.60
2018-07-01T11:34:16.992Z,24.10
2018-07-01T11:36:45.664Z,24.60
2018-07-01T11:39:14.955Z,23.40
2018-07-01T11:41:43.852Z,24.40
2018-07-01T11:44:13.507Z,24.20
2018-07-01T11:46:42.170Z,24.30
2018-07-01T11:49:11.296Z,23.50
2018-07-01T11:51:39.998Z,24.00
2018-07-01T11:54:08.613Z,23.90
2018-07-01T11:56:37.448Z,23.50
2018-07-01T11:59:06.432Z,23.70
2018-07-01T12:01:35.335Z,23.30
2018-07-01T12:04:04.334Z,23.50
2018-07-01T12:06:33.016Z,23.80
2018-07-01T12:09:01.594Z,22.80
2018-07-01T12:11:30.642Z,23.80
2018-07-01T12:13:59.156Z,22.40
2018-07-01T12:16:27.772Z,22.40
2018-07-01T12:18:56.376Z,22.40
2018-07-01T12:21:24.983Z,22.80
2018-07-01T12:23:53.746Z,22.50
2018-07-01T12:26:22.246Z,22.30
2018-07-01T12:28:50.825Z,21.90
2018-07-01T12:31:19.464Z,22.20
2018-07-01T12:33:48.408Z,22.00
2018-07-01T12:36:16.976Z,21.80
2018-07-01T12:38:45.488Z,21.70
2018-07-01T12:41:14.229Z,21.80
2018-07-01T12:43:42.991Z,21.70
2018-07-01T12:46:11.581Z,21.60
2018-07-01T12:48:40.648Z,21.70
2018-07-01T12:51:09.275Z,21.70
2018-07-01T12:53:37.874Z,21.60
2018-07-01T12:56:06.770Z,21.20
2018-07-01T12:58:35.391Z,21.20
2018-07-01T13:01:04.241Z,21.10
2018-07-01T13:03:33.019Z,21.40
2018-07-01T13:06:02.044Z,21.00
2018-07-01T13:08:31.027Z,20.40
2018-07-01T13:10:59.514Z,20.20
2018-07-01T13:13:28.040Z,19.90
2018-07-01T13:15:56.665Z,20.20
2018-07-01T13:18:25.348Z,20.20
2018-07-01T13:20:54.206Z,20.10
2018-07-01T13:23:22.812Z,20.60
2018-07-01T13:25:51.552Z,20.20
2018-07-01T13:28:20.472Z,20.20
2018-07-01T13:30:48.995Z,20.30
2018-07-01T13:33:17.544Z,19.90
2018-07-01T13:35:46.589Z,19.80
2018-07-01T13:38:15.401Z,20.10
2018-07-01T13:40:43.895Z,19.80
2018-07-01T13:43:12.527Z,19.10
2018-07-01T13:45:41.261Z,20.00
2018-07-01T13:48:10.167Z,20.10
2018-07-01T13:50:39.217Z,20.00
2018-07-01T13:53:07.991Z,19.60
2018-07-01T13:55:36.947Z,19.80
2018-07-01T13:58:06.073Z,19.30
2018-07-01T14:00:35.231Z,19.20
2018-07-01T14:03:03.876Z,19.10
2018-07-01T14:05:32.807Z,19.40
2018-07-01T14:08:01.543Z,19.10
2018-07-01T14:10:30.085Z,19.20
2018-07-01T14:12:58.858Z,19.30
2018-07-01T14:15:27.744Z,18.30
2018-07-01T14:17:57.208Z,18.40
2018-07-01T14:20:25.935Z,18.70
2018-07-01T14:22:54.883Z,18.30
2018-07-01T14:25:23.646Z,18.10
2018-07-01T14:30:20.638Z,18.30
2018-07-01T14:32:49.364Z,17.70
2018-07-01T14:35:18.118Z,17.90
2018-07-01T14:37:46.674Z,17.70
2018-07-01T14:40:15.489Z,17.90
2018-07-01T14:42:44.223Z,17.90
2018-07-01T14:45:13.613Z,18.30
2018-07-01T14:47:42.171Z,18.20
2018-07-01T14:50:10.796Z,18.10
2018-07-01T14:52:39.666Z,18.00
2018-07-01T14:55:08.369Z,18.20
2018-07-01T14:57:37.173Z,18.30
2018-07-01T15:00:06.262Z,18.00
2018-07-01T15:02:35.111Z,17.80
2018-07-01T15:05:04.612Z,17.90
2018-07-01T15:07:33.343Z,17.70
2018-07-01T15:10:02.079Z,18.60
2018-07-01T15:12:30.973Z,17.90
2018-07-01T15:14:59.839Z,18.10
2018-07-01T15:17:28.961Z,17.80
2018-07-01T15:19:57.691Z,18.20
2018-07-01T15:22:26.944Z,17.30
2018-07-01T15:24:55.524Z,17.20
2018-07-01T15:27:24.158Z,18.00
2018-07-01T15:29:53.012Z,17.80
2018-07-01T15:32:21.728Z,17.50
2018-07-01T15:34:50.492Z,17.70
2018-07-01T15:37:19.214Z,17.50
2018-07-01T15:39:48.039Z,17.20
2018-07-01T15:42:16.836Z,17.60
2018-07-01T15:44:45.466Z,17.80
2018-07-01T15:47:14.280Z,17.90
2018-07-01T15:49:43.152Z,18.70
2018-07-01T15:52:11.764Z,18.30
2018-07-01T15:54:40.561Z,18.60
2018-07-01T15:57:09.277Z,19.30
2018-07-01T15:59:38.099Z,19.30
2018-07-01T16:02:07.164Z,18.90
2018-07-01T16:04:35.982Z,17.70
2018-07-01T16:07:04.916Z,18.00
2018-07-01T16:09:33.421Z,18.60
2018-07-01T16:12:02.389Z,19.00
2018-07-01T16:14:31.202Z,19.50
2018-07-01T16:17:00.034Z,20.80
2018-07-01T16:19:28.563Z,21.50
2018-07-01T16:21:57.128Z,22.40
2018-07-01T16:24:26.153Z,22.80
2018-07-01T16:26:55.851Z,23.80
2018-07-01T16:29:24.737Z,23.90
2018-07-01T16:31:53.416Z,24.20
2018-07-01T16:34:22.015Z,23.90
2018-07-01T16:36:50.822Z,24.40
2018-07-01T16:39:19.465Z,24.80
2018-07-01T16:41:48.564Z,26.20
2018-07-01T16:44:17.537Z,25.60
2018-07-01T16:46:46.074Z,25.40
2018-07-01T16:49:14.822Z,24.60
2018-07-01T16:51:43.821Z,23.80
2018-07-01T16:54:12.787Z,23.30
2018-07-01T16:56:41.448Z,22.80
2018-07-01T17:01:38.575Z,23.90
2018-07-01T17:04:07.394Z,24.20
2018-07-01T17:06:36.169Z,24.20
2018-07-01T17:09:06.624Z,24.20
2018-07-01T17:11:35.358Z,24.10
2018-07-01T17:14:03.938Z,24.60
2018-07-01T17:16:32.575Z,25.30
2018-07-01T17:21:29.893Z,24.70
2018-07-01T17:23:58.628Z,24.90
2018-07-01T17:26:27.205Z,25.50
2018-07-01T17:28:55.950Z,25.40
2018-07-01T17:31:29.855Z,25.40
2018-07-01T17:33:58.408Z,25.60
2018-07-01T17:36:27.094Z,25.50
2018-07-01T17:38:55.715Z,26.00
2018-07-01T17:41:24.714Z,26.80
2018-07-01T17:43:53.592Z,26.50
2018-07-01T17:46:22.637Z,25.90
2018-07-01T17:48:51.346Z,25.90
2018-07-01T17:51:19.979Z,26.20
2018-07-01T17:53:56.454Z,26.90
2018-07-01T17:56:25.508Z,26.30
2018-07-01T17:58:55.029Z,26.30
2018-07-01T18:01:23.773Z,26.30
2018-07-01T18:03:52.738Z,26.70
2018-07-01T18:06:22.166Z,26.40
2018-07-01T18:08:50.984Z,26.50
2018-07-01T18:11:19.967Z,26.40
2018-07-01T18:13:48.793Z,26.90
2018-07-01T18:16:17.770Z,26.60
2018-07-01T18:18:46.719Z,27.10
2018-07-01T18:21:20.255Z,27.00
2018-07-01T18:24:11.117Z,27.00
2018-07-01T18:26:13.868Z,27.30
2018-07-01T18:28:55.768Z,27.30
2018-07-01T18:31:12.366Z,27.40
2018-07-01T18:33:41.455Z,27.20
2018-07-01T18:36:10.485Z,27.40
2018-07-01T18:38:39.254Z,27.50
2018-07-01T18:41:07.985Z,27.80
2018-07-01T18:43:37.204Z,28.20
2018-07-01T18:46:06.208Z,28.30
2018-07-01T18:48:35.085Z,28.60
2018-07-01T18:51:03.787Z,28.40
2018-07-01T18:53:32.694Z,28.70
2018-07-01T18:56:01.329Z,29.00
2018-07-01T18:58:30.289Z,29.30
2018-07-01T19:00:59.272Z,29.10
2018-07-01T19:03:27.982Z,29.40
2018-07-01T19:05:56.617Z,29.80
2018-07-01T19:08:25.836Z,30.20
2018-07-01T19:10:54.647Z,31.10
2018-07-01T19:13:23.405Z,30.10
2018-07-01T19:15:52.241Z,31.30
2018-07-01T19:18:21.114Z,32.00
2018-07-01T19:20:49.925Z,31.20
2018-07-01T19:23:18.641Z,31.80
2018-07-01T19:25:47.420Z,32.20
2018-07-01T19:28:16.244Z,32.60
2018-07-01T19:30:45.335Z,32.40
2018-07-01T19:33:14.193Z,32.60
2018-07-01T19:35:43.340Z,32.90
2018-07-01T19:38:12.052Z,34.20
2018-07-01T19:43:09.348Z,35.20
2018-07-01T19:45:38.262Z,36.80
2018-07-01T19:48:07.172Z,38.60
2018-07-01T19:50:36.086Z,39.50
2018-07-01T19:53:05.109Z,38.70
2018-07-01T19:55:33.973Z,38.90
2018-07-01T20:00:31.314Z,38.20
2018-07-01T20:03:00.681Z,37.10
2018-07-01T20:05:29.760Z,37.60
2018-07-01T20:07:58.547Z,38.50
2018-07-01T20:10:27.563Z,39.30
2018-07-01T20:12:56.472Z,39.20
2018-07-01T20:15:25.443Z,39.90
2018-07-01T20:17:54.414Z,41.10
2018-07-01T20:20:23.161Z,42.90
2018-07-01T20:22:51.924Z,44.00
2018-07-01T20:25:20.950Z,46.20
2018-07-01T20:27:50.058Z,46.90
2018-07-01T20:30:18.760Z,47.90
2018-07-01T20:32:47.645Z,47.90
2018-07-01T20:35:16.456Z,47.40
2018-07-01T20:37:45.240Z,50.60
2018-07-01T20:40:13.771Z,52.40
2018-07-01T20:42:42.602Z,53.90
2018-07-01T20:45:11.725Z,54.70
2018-07-01T20:47:40.530Z,55.50
2018-07-01T20:50:09.350Z,57.00
2018-07-01T20:52:38.035Z,57.60
2018-07-01T20:55:06.767Z,58.60
2018-07-01T20:57:35.953Z,58.90
2018-07-01T21:00:05.223Z,59.30
2018-07-01T21:02:34.242Z,59.90
2018-07-01T21:05:03.261Z,60.60
2018-07-01T21:07:32.990Z,60.30
2018-07-01T21:10:02.127Z,60.00
2018-07-01T21:12:30.916Z,62.60
2018-07-01T21:14:59.692Z,62.40
2018-07-01T21:17:28.609Z,62.40
2018-07-01T21:19:57.340Z,62.20
2018-07-01T21:22:26.025Z,64.90
2018-07-01T21:24:54.614Z,65.60
2018-07-01T21:27:23.196Z,66.40
2018-07-01T21:29:52.001Z,67.40
2018-07-01T21:32:20.780Z,68.70
2018-07-01T21:34:49.430Z,68.80
2018-07-01T21:37:18.656Z,68.60
2018-07-01T21:39:47.213Z,67.30
2018-07-01T21:42:15.799Z,67.60
2018-07-01T21:44:44.903Z,68.60
2018-07-01T21:47:13.824Z,69.30
2018-07-01T21:49:42.440Z,69.10
2018-07-01T21:52:11.107Z,69.80
2018-07-01T21:54:39.656Z,69.70
2018-07-01T21:57:08.463Z,69.70
2018-07-01T21:59:37.215Z,69.90
2018-07-01T22:02:05.802Z,70.20
2018-07-01T22:04:34.315Z,70.30
2018-07-01T22:07:03.221Z,70.10
2018-07-01T22:09:32.441Z,70.50
2018-07-01T22:12:12.210Z,70.80
2018-07-01T22:14:52.021Z,71.40
2018-07-01T22:17:20.679Z,71.80
2018-07-01T22:19:49.398Z,72.80
2018-07-01T22:22:18.096Z,73.10
2018-07-01T22:24:46.873Z,73.80
2018-07-01T22:27:15.696Z,74.10
2018-07-01T22:29:44.241Z,74.40
2018-07-01T22:32:12.798Z,75.00
2018-07-01T22:34:41.322Z,75.40
2018-07-01T22:37:10.077Z,76.30
2018-07-01T22:39:38.787Z,76.20
2018-07-01T22:42:07.317Z,76.00
2018-07-01T22:47:04.217Z,77.00
2018-07-01T22:49:32.963Z,76.20
2018-07-01T22:54:29.683Z,76.50
2018-07-01T22:56:58.183Z,77.80
2018-07-01T22:59:26.795Z,77.60
2018-07-01T23:03:11.993Z,77.70
2018-07-01T23:05:40.505Z,78.60
2018-07-01T23:08:09.560Z,78.70
2018-07-01T23:10:38.488Z,79.00
2018-07-01T23:13:07.008Z,78.90
2018-07-01T23:15:35.641Z,78.90
2018-07-01T23:18:04.360Z,78.80
2018-07-01T23:20:32.918Z,79.20
2018-07-01T23:23:01.447Z,79.00
2018-07-01T23:27:58.516Z,79.40
2018-07-01T23:30:27.164Z,79.60
2018-07-01T23:32:55.872Z,80.20
2018-07-01T23:35:24.400Z,80.70
2018-07-01T23:37:53.387Z,80.70
2018-07-01T23:40:21.860Z,80.30
2018-07-01T23:42:50.422Z,80.70
2018-07-01T23:45:18.919Z,79.90
2018-07-01T23:47:47.763Z,80.60
2018-07-01T23:50:16.359Z,80.80
2018-07-01T23:52:45.075Z,80.60
2018-07-01T23:55:13.587Z,80.40
2018-07-01T23:57:42.093Z,80.50
